createdAt,value
2023-01-20T00:04:29.991Z,86.99
2023-01-20T00:09:29.583Z,87.14
2023-01-20T00:13:10.722Z,87.13
2023-01-20T00:14:29.586Z,87.13
2023-01-20T00:16:59.194Z,87.13
2023-01-20T00:19:29.585Z,87.00
2023-01-20T00:23:52.142Z,87.13
2023-01-20T00:24:29.723Z,87.13
2023-01-20T00:29:30.007Z,87.04
2023-01-20T00:34:29.630Z,87.11
2023-01-20T00:39:29.738Z,87.00
2023-01-20T00:43:35.470Z,87.33
2023-01-20T00:44:29.529Z,87.33
2023-01-20T00:49:29.576Z,87.29
2023-01-20T00:54:29.705Z,87.35
2023-01-20T00:56:34.129Z,87.35
2023-01-20T00:58:58.618Z,87.31
2023-01-20T00:59:29.657Z,87.31
2023-01-20T01:04:29.964Z,87.10
2023-01-20T01:09:21.115Z,87.14
2023-01-20T01:09:31.247Z,87.14
2023-01-20T01:14:30.471Z,87.17
2023-01-20T01:19:29.795Z,87.27
2023-01-20T01:24:29.620Z,87.36
2023-01-20T01:29:29.476Z,87.54
2023-01-20T01:34:29.908Z,87.61
2023-01-20T01:39:29.851Z,87.44
2023-01-20T01:44:30.919Z,87.37
2023-01-20T01:49:32.088Z,87.50
2023-01-20T01:54:33.747Z,87.36
2023-01-20T01:55:06.166Z,87.36
2023-01-20T01:59:29.699Z,87.42
2023-01-20T02:04:30.484Z,87.42
2023-01-20T02:08:57.053Z,87.38
2023-01-20T02:09:30.226Z,87.38
2023-01-20T02:12:48.637Z,87.39
2023-01-20T02:14:33.085Z,87.39
2023-01-20T02:19:49.316Z,87.46
2023-01-20T02:24:49.292Z,87.36
2023-01-20T02:29:42.527Z,87.35
2023-01-20T02:30:12.874Z,87.35
2023-01-20T02:34:34.434Z,87.25
2023-01-20T02:36:09.108Z,87.25
2023-01-20T02:39:35.049Z,87.27
2023-01-20T02:39:43.450Z,87.27
2023-01-20T02:39:54.482Z,87.27
2023-01-20T02:42:21.818Z,87.27
2023-01-20T02:44:38.148Z,87.27
2023-01-20T02:46:38.519Z,87.27
2023-01-20T02:49:34.097Z,87.23
2023-01-20T02:54:33.854Z,87.36
2023-01-20T02:59:33.597Z,87.32
2023-01-20T03:01:39.179Z,87.32
2023-01-20T03:04:35.858Z,87.35
2023-01-20T03:09:36.920Z,87.40
2023-01-20T03:10:00.946Z,87.40
2023-01-20T03:13:51.498Z,87.51
2023-01-20T03:14:29.926Z,87.51
2023-01-20T03:19:29.512Z,87.96
2023-01-20T03:21:18.024Z,87.96
2023-01-20T03:24:32.484Z,88.65
2023-01-20T03:29:30.004Z,89.15
2023-01-20T03:34:34.056Z,88.97
2023-01-20T03:38:24.660Z,88.99
2023-01-20T03:39:30.433Z,88.99
2023-01-20T03:44:39.082Z,88.53
2023-01-20T03:49:35.880Z,88.37
2023-01-20T03:54:34.029Z,88.16
2023-01-20T03:59:33.521Z,88.61
2023-01-20T04:04:32.808Z,88.54
2023-01-20T04:09:35.685Z,88.35
2023-01-20T04:11:54.262Z,88.35
2023-01-20T04:14:29.541Z,88.16
2023-01-20T04:19:30.765Z,87.89
2023-01-20T04:21:32.670Z,87.89
2023-01-20T04:23:00.346Z,87.88
2023-01-20T04:24:34.421Z,87.88
2023-01-20T04:29:07.295Z,88.08
2023-01-20T04:29:29.442Z,88.08
2023-01-20T04:34:29.861Z,88.04
2023-01-20T04:39:29.549Z,87.91
2023-01-20T04:44:29.430Z,88.73
2023-01-20T04:49:29.530Z,88.92
2023-01-20T04:54:29.581Z,88.56
2023-01-20T04:59:29.727Z,88.57
2023-01-20T05:04:29.540Z,88.21
2023-01-20T05:09:29.741Z,88.07
2023-01-20T05:11:04.875Z,88.07
2023-01-20T05:14:29.629Z,88.16
2023-01-20T05:19:29.741Z,88.21
2023-01-20T05:24:29.920Z,88.10
2023-01-20T05:29:29.719Z,87.88
2023-01-20T05:33:13.919Z,88.13
2023-01-20T05:34:29.310Z,88.13
2023-01-20T05:36:12.122Z,88.13
2023-01-20T05:39:29.432Z,87.97
2023-01-20T05:44:29.623Z,87.78
2023-01-20T05:45:38.988Z,87.78
2023-01-20T05:49:29.380Z,87.70
2023-01-20T05:54:29.447Z,87.48
2023-01-20T05:59:29.563Z,87.92
2023-01-20T06:04:29.464Z,88.19
2023-01-20T06:09:29.356Z,88.61
2023-01-20T06:11:40.005Z,88.61
2023-01-20T06:14:29.270Z,88.30
2023-01-20T06:16:20.832Z,88.30
2023-01-20T06:19:29.341Z,87.86
2023-01-20T06:24:29.990Z,87.73
2023-01-20T06:29:29.868Z,87.68
2023-01-20T06:31:02.419Z,87.68
2023-01-20T06:34:29.720Z,88.10
2023-01-20T06:39:29.552Z,88.41
2023-01-20T06:43:05.335Z,88.53
2023-01-20T06:44:29.727Z,88.53
2023-01-20T06:44:53.392Z,88.53
2023-01-20T06:49:14.588Z,88.67
2023-01-20T06:49:29.222Z,88.67
2023-01-20T06:54:29.585Z,88.90
2023-01-20T06:59:29.302Z,88.67
2023-01-20T07:03:06.038Z,88.90
2023-01-20T07:04:29.251Z,88.90
2023-01-20T07:04:43.042Z,88.90
2023-01-20T07:06:48.617Z,88.90
2023-01-20T07:09:29.470Z,89.25
2023-01-20T07:11:08.762Z,89.25
2023-01-20T07:14:29.732Z,88.92
2023-01-20T07:17:11.417Z,88.90
2023-01-20T07:19:29.196Z,88.90
2023-01-20T07:24:29.395Z,88.97
2023-01-20T07:24:40.274Z,88.97
2023-01-20T07:29:29.519Z,88.89
2023-01-20T07:33:40.507Z,88.44
2023-01-20T07:34:29.236Z,88.44
2023-01-20T07:39:29.236Z,88.51
2023-01-20T07:44:29.327Z,88.54
2023-01-20T07:49:29.259Z,88.87
2023-01-20T07:54:29.315Z,88.94
2023-01-20T07:57:33.027Z,88.83
2023-01-20T07:59:29.256Z,88.83
2023-01-20T08:02:13.870Z,88.82
2023-01-20T08:04:29.254Z,88.82
2023-01-20T08:09:29.474Z,88.50
2023-01-20T08:14:29.164Z,87.95
2023-01-20T08:18:32.881Z,87.83
2023-01-20T08:19:29.287Z,87.83
2023-01-20T08:24:29.407Z,87.89
2023-01-20T08:29:30.303Z,88.03
2023-01-20T08:30:40.904Z,88.03
2023-01-20T08:34:29.230Z,87.75
2023-01-20T08:36:04.037Z,87.75
2023-01-20T08:39:29.228Z,87.48
2023-01-20T08:40:08.150Z,87.48
2023-01-20T08:44:29.201Z,87.15
2023-01-20T08:49:29.650Z,86.83
2023-01-20T08:54:33.558Z,86.36
2023-01-20T08:59:29.140Z,85.81
2023-01-20T09:04:29.908Z,85.54
2023-01-20T09:06:44.914Z,85.54
2023-01-20T09:08:26.014Z,84.57
2023-01-20T09:09:29.163Z,84.57
2023-01-20T09:10:11.414Z,84.57
2023-01-20T09:14:29.123Z,84.77
2023-01-20T09:14:40.819Z,84.77
2023-01-20T09:18:49.374Z,84.37
2023-01-20T09:19:29.489Z,84.37
2023-01-20T09:24:04.742Z,84.13
2023-01-20T09:24:29.267Z,84.13
2023-01-20T09:29:08.080Z,84.55
2023-01-20T09:29:29.094Z,84.55
2023-01-20T09:34:30.130Z,84.94
2023-01-20T09:39:39.126Z,85.22
2023-01-20T09:44:39.854Z,84.92
2023-01-20T09:47:18.395Z,85.15
2023-01-20T09:49:46.375Z,85.15
2023-01-20T09:54:39.041Z,85.15
2023-01-20T09:59:36.991Z,85.09
2023-01-20T10:04:35.895Z,85.21
2023-01-20T10:09:36.994Z,85.84
2023-01-20T10:14:33.525Z,85.31
2023-01-20T10:19:34.843Z,85.23
2023-01-20T10:24:33.322Z,85.21
2023-01-20T10:29:34.827Z,84.84
2023-01-20T10:34:36.365Z,85.18
2023-01-20T10:39:36.908Z,85.31
2023-01-20T10:40:59.228Z,85.31
2023-01-20T10:44:32.758Z,84.65
2023-01-20T10:45:20.312Z,84.65
2023-01-20T10:49:47.864Z,83.97
2023-01-20T10:54:40.778Z,84.24
2023-01-20T10:59:33.224Z,83.70
2023-01-20T11:00:30.925Z,83.70
2023-01-20T11:04:30.970Z,83.43
2023-01-20T11:09:33.847Z,83.94
2023-01-20T11:14:30.023Z,84.39
2023-01-20T11:17:14.364Z,84.52
2023-01-20T11:19:44.788Z,84.52
2023-01-20T11:24:40.006Z,84.97
2023-01-20T11:29:30.841Z,85.48
2023-01-20T11:29:41.056Z,85.48
2023-01-20T11:34:31.128Z,84.51
2023-01-20T11:39:32.635Z,84.44
2023-01-20T11:40:34.224Z,84.44
2023-01-20T11:44:28.979Z,83.84
2023-01-20T11:49:29.211Z,83.78
2023-01-20T11:54:29.724Z,83.26
2023-01-20T11:59:31.342Z,84.23
2023-01-20T12:04:40.372Z,84.51
2023-01-20T12:09:36.521Z,84.21
2023-01-20T12:14:31.285Z,85.14
2023-01-20T12:19:43.167Z,85.57
2023-01-20T12:24:48.345Z,85.50
2023-01-20T12:29:43.656Z,85.66
2023-01-20T12:34:30.627Z,86.34
2023-01-20T12:39:45.168Z,86.45
2023-01-20T12:44:36.397Z,86.01
2023-01-20T12:49:44.153Z,85.42
2023-01-20T12:54:48.633Z,85.20
2023-01-20T12:59:41.884Z,85.04
2023-01-20T13:04:48.774Z,83.80
2023-01-20T13:05:21.405Z,83.80
2023-01-20T13:09:39.975Z,83.52
2023-01-20T13:14:39.683Z,83.70
2023-01-20T13:19:32.248Z,84.02
2023-01-20T13:24:29.421Z,84.25
2023-01-20T13:29:41.290Z,84.59
2023-01-20T13:33:34.746Z,83.84
2023-01-20T13:34:32.361Z,83.84
2023-01-20T13:36:31.455Z,83.84
2023-01-20T13:39:39.782Z,84.23
2023-01-20T13:44:34.264Z,85.21
2023-01-20T13:45:21.573Z,85.21
2023-01-20T13:47:35.394Z,85.26
2023-01-20T13:49:47.848Z,85.26
2023-01-20T13:54:41.301Z,85.30
2023-01-20T13:59:29.435Z,85.62
2023-01-20T14:02:38.981Z,84.99
2023-01-20T14:04:28.879Z,84.99
2023-01-20T14:07:49.536Z,85.52
2023-01-20T14:09:28.874Z,85.52
2023-01-20T14:14:28.991Z,85.06
2023-01-20T14:19:31.394Z,84.47
2023-01-20T14:24:31.623Z,85.04
2023-01-20T14:24:43.223Z,85.04
2023-01-20T14:29:29.023Z,85.54
2023-01-20T14:30:19.994Z,85.54
2023-01-20T14:34:31.550Z,85.71
2023-01-20T14:35:44.005Z,85.71
2023-01-20T14:37:39.574Z,85.48
2023-01-20T14:39:29.904Z,85.48
2023-01-20T14:42:40.475Z,85.66
2023-01-20T14:44:16.945Z,85.66
2023-01-20T14:44:32.166Z,85.66
2023-01-20T14:47:09.547Z,86.07
2023-01-20T14:49:32.247Z,86.07
2023-01-20T14:54:34.473Z,86.27
2023-01-20T14:54:40.311Z,86.27
2023-01-20T14:59:03.216Z,85.83
2023-01-20T14:59:28.917Z,85.83
2023-01-20T15:04:35.380Z,85.69
2023-01-20T15:09:30.548Z,85.98
2023-01-20T15:14:30.697Z,85.98
2023-01-20T15:19:32.008Z,85.99
2023-01-20T15:24:31.210Z,86.12
2023-01-20T15:29:31.355Z,85.98
2023-01-20T15:34:29.097Z,86.00
2023-01-20T15:39:29.380Z,86.13
2023-01-20T15:44:28.793Z,86.27
2023-01-20T15:49:28.933Z,86.68
2023-01-20T15:52:26.820Z,86.55
2023-01-20T15:54:28.832Z,86.55
2023-01-20T15:59:29.262Z,86.66
2023-01-20T16:04:30.734Z,86.82
2023-01-20T16:09:32.888Z,86.89
2023-01-20T16:14:28.956Z,86.72
2023-01-20T16:19:28.974Z,86.74
2023-01-20T16:24:28.888Z,86.70
2023-01-20T16:29:28.994Z,86.88
2023-01-20T16:34:29.395Z,86.67
2023-01-20T16:39:28.916Z,87.10
2023-01-20T16:39:35.876Z,87.10
2023-01-20T16:44:28.819Z,87.25
2023-01-20T16:49:28.944Z,87.38
2023-01-20T16:50:04.579Z,87.38
2023-01-20T16:52:35.394Z,87.03
2023-01-20T16:54:28.804Z,87.03
2023-01-20T16:59:28.870Z,87.18
2023-01-20T17:04:29.602Z,87.35
2023-01-20T17:07:08.095Z,87.58
2023-01-20T17:09:28.749Z,87.58
2023-01-20T17:10:19.040Z,87.58
2023-01-20T17:14:28.752Z,87.41
2023-01-20T17:19:28.993Z,87.16
2023-01-20T17:24:20.708Z,87.05
2023-01-20T17:24:28.678Z,87.05
2023-01-20T17:29:28.749Z,86.84
2023-01-20T17:34:29.071Z,87.02
2023-01-20T17:39:28.747Z,86.96
2023-01-20T17:39:49.502Z,86.96
2023-01-20T17:41:20.749Z,86.96
2023-01-20T17:44:28.698Z,86.75
2023-01-20T17:49:30.993Z,86.81
2023-01-20T17:59:28.881Z,86.55
2023-01-20T18:01:55.876Z,86.55
2023-01-20T18:03:08.427Z,86.54
2023-01-20T18:04:29.246Z,86.54
2023-01-20T18:09:28.667Z,86.42
2023-01-20T18:09:49.260Z,86.42
2023-01-20T18:14:28.774Z,86.38
2023-01-20T18:19:28.743Z,86.75
2023-01-20T18:24:28.850Z,86.96
2023-01-20T18:25:36.328Z,86.96
2023-01-20T18:29:29.330Z,87.12
2023-01-20T18:33:24.697Z,87.07
2023-01-20T18:34:28.701Z,87.07
2023-01-20T18:39:29.555Z,87.25
2023-01-20T18:44:28.618Z,87.06
2023-01-20T18:49:28.862Z,86.91
2023-01-20T18:52:46.133Z,86.96
2023-01-20T18:54:31.891Z,86.96
2023-01-20T18:57:59.970Z,86.65
2023-01-20T18:59:28.737Z,86.65
2023-01-20T19:01:32.857Z,86.65
2023-01-20T19:03:53.072Z,86.59
2023-01-20T19:04:29.161Z,86.59
2023-01-20T19:09:28.717Z,86.51
2023-01-20T19:14:29.280Z,86.62
2023-01-20T19:15:56.191Z,86.62
2023-01-20T19:19:29.039Z,86.50
2023-01-20T19:19:37.096Z,86.50
2023-01-20T19:24:29.378Z,86.44
2023-01-20T19:27:08.699Z,86.35
2023-01-20T19:29:29.596Z,86.35
2023-01-20T19:29:48.928Z,86.35
2023-01-20T19:34:29.165Z,86.37
2023-01-20T19:37:39.474Z,86.37
2023-01-20T19:39:28.640Z,86.37
2023-01-20T19:44:28.627Z,86.14
2023-01-20T19:49:29.368Z,85.95
2023-01-20T19:54:29.946Z,85.79
2023-01-20T19:59:28.658Z,85.50
2023-01-20T20:04:29.063Z,85.37
2023-01-20T20:09:29.386Z,85.23
2023-01-20T20:14:31.896Z,85.22
2023-01-20T20:19:29.122Z,85.31
2023-01-20T20:21:43.317Z,85.31
2023-01-20T20:24:28.686Z,85.39
2023-01-20T20:27:40.672Z,85.44
2023-01-20T20:29:28.766Z,85.44
2023-01-20T20:34:29.506Z,85.75
2023-01-20T20:39:28.624Z,85.77
2023-01-20T20:44:28.863Z,85.68
2023-01-20T20:47:08.038Z,86.02
2023-01-20T20:49:30.429Z,86.02
2023-01-20T20:54:28.772Z,86.10
2023-01-20T20:59:28.827Z,86.15
2023-01-20T21:02:32.912Z,85.73
2023-01-20T21:04:29.731Z,85.73
2023-01-20T21:09:28.919Z,85.84
2023-01-20T21:14:29.304Z,85.74
2023-01-20T21:19:25.599Z,85.31
2023-01-20T21:19:28.299Z,85.31
2023-01-20T21:24:29.185Z,84.78
2023-01-20T21:29:28.717Z,84.70
2023-01-20T21:34:28.551Z,84.63
2023-01-20T21:35:54.557Z,84.63
2023-01-20T21:39:28.505Z,84.97
2023-01-20T21:44:28.894Z,84.99
2023-01-20T21:49:38.506Z,84.99
2023-01-20T21:51:02.761Z,84.99
2023-01-20T21:54:28.923Z,84.72
2023-01-20T21:59:29.301Z,84.82
2023-01-20T22:04:28.608Z,85.02
2023-01-20T22:09:28.546Z,85.20
2023-01-20T22:14:31.255Z,85.41
2023-01-20T22:18:09.752Z,85.41
2023-01-20T22:19:28.505Z,85.41
2023-01-20T22:24:28.628Z,85.20
2023-01-20T22:27:56.967Z,85.17
2023-01-20T22:29:28.718Z,85.17
2023-01-20T22:33:22.341Z,85.57
2023-01-20T22:34:29.086Z,85.57
2023-01-20T22:38:02.132Z,85.86
2023-01-20T22:39:28.488Z,85.86
2023-01-20T22:40:04.134Z,85.86
2023-01-20T22:44:28.449Z,86.13
2023-01-20T22:47:08.770Z,86.69
2023-01-20T22:49:29.169Z,86.69
2023-01-20T22:54:28.600Z,86.37
2023-01-20T22:56:07.579Z,86.37
2023-01-20T22:57:52.390Z,86.35
2023-01-20T22:59:28.411Z,86.35
2023-01-20T23:04:28.665Z,86.35
2023-01-20T23:06:31.516Z,86.35
2023-01-20T23:09:28.445Z,86.52
2023-01-20T23:12:32.039Z,86.62
2023-01-20T23:14:38.308Z,86.62
2023-01-20T23:19:28.684Z,86.61
2023-01-20T23:24:28.507Z,86.83
2023-01-20T23:28:03.157Z,86.82
2023-01-20T23:29:28.371Z,86.82
2023-01-20T23:31:24.962Z,86.82
2023-01-20T23:34:28.557Z,86.91
2023-01-20T23:39:28.387Z,86.83
2023-01-20T23:44:28.595Z,86.96
2023-01-20T23:49:28.390Z,87.14
2023-01-20T23:54:28.571Z,86.96
2023-01-20T23:54:38.913Z,86.96
2023-01-20T23:58:07.414Z,86.95
2023-01-20T23:59:28.407Z,86.95
